sensor_id;sensor_type;location;lat;lon;timestamp;P1;durP1;ratioP1;P2;durP2;ratioP2
60853;SDS011;48554;50.766;2.900;2022-10-16T00:01:04;1.87;;;0.43;;
60853;SDS011;48554;50.766;2.900;2022-10-16T00:03:25;0.55;;;0.35;;
60853;SDS011;48554;50.766;2.900;2022-10-16T00:05:46;2.33;;;0.40;;
60853;SDS011;48554;50.766;2.900;2022-10-16T00:08:07;2.90;;;0.50;;
60853;SDS011;48554;50.766;2.900;2022-10-16T00:10:27;0.88;;;0.45;;
60853;SDS011;48554;50.766;2.900;2022-10-16T00:12:48;0.47;;;0.30;;
60853;SDS011;48554;50.766;2.900;2022-10-16T00:15:09;0.22;;;0.20;;
60853;SDS011;48554;50.766;2.900;2022-10-16T00:17:29;0.82;;;0.40;;
60853;SDS011;48554;50.766;2.900;2022-10-16T00:19:50;0.20;;;0.20;;
60853;SDS011;48554;50.766;2.900;2022-10-16T00:22:10;0.53;;;0.30;;
60853;SDS011;48554;50.766;2.900;2022-10-16T00:24:30;0.70;;;0.37;;
60853;SDS011;48554;50.766;2.900;2022-10-16T00:26:50;1.40;;;0.50;;
60853;SDS011;48554;50.766;2.900;2022-10-16T00:29:11;0.70;;;0.30;;
60853;SDS011;48554;50.766;2.900;2022-10-16T00:31:31;1.33;;;0.75;;
60853;SDS011;48554;50.766;2.900;2022-10-16T00:33:52;0.93;;;0.30;;
60853;SDS011;48554;50.766;2.900;2022-10-16T00:36:13;1.38;;;0.40;;
60853;SDS011;48554;50.766;2.900;2022-10-16T00:38:35;0.43;;;0.30;;
60853;SDS011;48554;50.766;2.900;2022-10-16T00:40:56;1.58;;;0.40;;
60853;SDS011;48554;50.766;2.900;2022-10-16T00:45:57;0.77;;;0.40;;
60853;SDS011;48554;50.766;2.900;2022-10-16T00:48:18;0.57;;;0.20;;
60853;SDS011;48554;50.766;2.900;2022-10-16T00:50:38;0.27;;;0.27;;
60853;SDS011;48554;50.766;2.900;2022-10-16T00:52:59;1.70;;;0.30;;
60853;SDS011;48554;50.766;2.900;2022-10-16T00:55:21;1.55;;;0.90;;
60853;SDS011;48554;50.766;2.900;2022-10-16T00:57:42;0.93;;;0.38;;
60853;SDS011;48554;50.766;2.900;2022-10-16T01:00:05;0.98;;;0.50;;
60853;SDS011;48554;50.766;2.900;2022-10-16T01:02:27;0.55;;;0.22;;
60853;SDS011;48554;50.766;2.900;2022-10-16T01:04:48;0.63;;;0.32;;
60853;SDS011;48554;50.766;2.900;2022-10-16T01:07:17;1.45;;;0.30;;
60853;SDS011;48554;50.766;2.900;2022-10-16T01:09:46;0.60;;;0.40;;
60853;SDS011;48554;50.766;2.900;2022-10-16T01:12:45;1.35;;;0.30;;
60853;SDS011;48554;50.766;2.900;2022-10-16T01:17:58;0.57;;;0.30;;
60853;SDS011;48554;50.766;2.900;2022-10-16T01:20:27;0.63;;;0.28;;
60853;SDS011;48554;50.766;2.900;2022-10-16T01:22:56;0.45;;;0.30;;
60853;SDS011;48554;50.766;2.900;2022-10-16T01:25:26;0.20;;;0.20;;
60853;SDS011;48554;50.766;2.900;2022-10-16T01:28:09;0.85;;;0.40;;
60853;SDS011;48554;50.766;2.900;2022-10-16T01:30:32;0.50;;;0.20;;
60853;SDS011;48554;50.766;2.900;2022-10-16T01:32:56;1.42;;;0.60;;
60853;SDS011;48554;50.766;2.900;2022-10-16T01:35:29;0.47;;;0.20;;
60853;SDS011;48554;50.766;2.900;2022-10-16T01:40:16;1.05;;;0.43;;
60853;SDS011;48554;50.766;2.900;2022-10-16T01:42:41;0.30;;;0.28;;
60853;SDS011;48554;50.766;2.900;2022-10-16T01:45:04;0.73;;;0.30;;
60853;SDS011;48554;50.766;2.900;2022-10-16T01:47:26;1.17;;;0.43;;
60853;SDS011;48554;50.766;2.900;2022-10-16T01:49:50;1.02;;;0.40;;
60853;SDS011;48554;50.766;2.900;2022-10-16T01:52:16;0.38;;;0.28;;
60853;SDS011;48554;50.766;2.900;2022-10-16T01:54:40;0.73;;;0.30;;
60853;SDS011;48554;50.766;2.900;2022-10-16T01:57:05;1.08;;;0.35;;
60853;SDS011;48554;50.766;2.900;2022-10-16T02:01:58;1.35;;;0.30;;
60853;SDS011;48554;50.766;2.900;2022-10-16T02:06:41;0.65;;;0.40;;
60853;SDS011;48554;50.766;2.900;2022-10-16T02:09:01;1.17;;;0.50;;
60853;SDS011;48554;50.766;2.900;2022-10-16T02:11:22;1.10;;;0.50;;
60853;SDS011;48554;50.766;2.900;2022-10-16T02:13:44;1.20;;;0.30;;
60853;SDS011;48554;50.766;2.900;2022-10-16T02:16:07;0.55;;;0.38;;
60853;SDS011;48554;50.766;2.900;2022-10-16T02:18:29;0.17;;;0.13;;
60853;SDS011;48554;50.766;2.900;2022-10-16T02:20:59;0.55;;;0.30;;
60853;SDS011;48554;50.766;2.900;2022-10-16T02:23:48;0.82;;;0.40;;
60853;SDS011;48554;50.766;2.900;2022-10-16T02:26:17;1.55;;;0.40;;
60853;SDS011;48554;50.766;2.900;2022-10-16T02:28:55;2.03;;;0.43;;
60853;SDS011;48554;50.766;2.900;2022-10-16T02:31:23;0.68;;;0.43;;
60853;SDS011;48554;50.766;2.900;2022-10-16T02:33:47;0.50;;;0.30;;
60853;SDS011;48554;50.766;2.900;2022-10-16T02:36:08;0.93;;;0.40;;
60853;SDS011;48554;50.766;2.900;2022-10-16T02:38:29;1.13;;;0.30;;
60853;SDS011;48554;50.766;2.900;2022-10-16T02:40:50;0.20;;;0.20;;
60853;SDS011;48554;50.766;2.900;2022-10-16T02:43:11;0.77;;;0.30;;
60853;SDS011;48554;50.766;2.900;2022-10-16T02:45:32;2.53;;;0.30;;
60853;SDS011;48554;50.766;2.900;2022-10-16T02:47:52;0.17;;;0.13;;
60853;SDS011;48554;50.766;2.900;2022-10-16T02:50:12;1.17;;;0.45;;
60853;SDS011;48554;50.766;2.900;2022-10-16T02:52:33;0.30;;;0.20;;
60853;SDS011;48554;50.766;2.900;2022-10-16T02:54:53;0.32;;;0.20;;
60853;SDS011;48554;50.766;2.900;2022-10-16T02:57:13;2.03;;;0.40;;
60853;SDS011;48554;50.766;2.900;2022-10-16T02:59:34;0.97;;;0.40;;
60853;SDS011;48554;50.766;2.900;2022-10-16T03:01:54;0.30;;;0.20;;
60853;SDS011;48554;50.766;2.900;2022-10-16T03:04:14;0.93;;;0.37;;
60853;SDS011;48554;50.766;2.900;2022-10-16T03:06:34;0.27;;;0.23;;
60853;SDS011;48554;50.766;2.900;2022-10-16T03:08:55;0.53;;;0.30;;
60853;SDS011;48554;50.766;2.900;2022-10-16T03:11:15;2.13;;;0.37;;
60853;SDS011;48554;50.766;2.900;2022-10-16T03:13:35;3.50;;;0.33;;
60853;SDS011;48554;50.766;2.900;2022-10-16T03:15:56;1.50;;;0.30;;
60853;SDS011;48554;50.766;2.900;2022-10-16T03:18:16;2.27;;;0.40;;
60853;SDS011;48554;50.766;2.900;2022-10-16T03:20:36;0.60;;;0.40;;
60853;SDS011;48554;50.766;2.900;2022-10-16T03:22:56;0.20;;;0.17;;
60853;SDS011;48554;50.766;2.900;2022-10-16T03:25:17;0.37;;;0.20;;
60853;SDS011;48554;50.766;2.900;2022-10-16T03:27:37;0.23;;;0.20;;
60853;SDS011;48554;50.766;2.900;2022-10-16T03:29:57;1.13;;;0.45;;
60853;SDS011;48554;50.766;2.900;2022-10-16T03:32:17;0.47;;;0.38;;
60853;SDS011;48554;50.766;2.900;2022-10-16T03:34:38;0.70;;;0.38;;
60853;SDS011;48554;50.766;2.900;2022-10-16T03:36:58;0.32;;;0.20;;
60853;SDS011;48554;50.766;2.900;2022-10-16T03:39:18;1.50;;;0.50;;
60853;SDS011;48554;50.766;2.900;2022-10-16T03:41:39;1.57;;;0.33;;
60853;SDS011;48554;50.766;2.900;2022-10-16T03:43:59;2.13;;;0.30;;
60853;SDS011;48554;50.766;2.900;2022-10-16T03:46:19;0.93;;;0.33;;
60853;SDS011;48554;50.766;2.900;2022-10-16T03:48:40;0.93;;;0.50;;
60853;SDS011;48554;50.766;2.900;2022-10-16T03:51:00;1.50;;;0.37;;
60853;SDS011;48554;50.766;2.900;2022-10-16T03:53:20;0.10;;;0.10;;
60853;SDS011;48554;50.766;2.900;2022-10-16T03:55:41;2.30;;;0.50;;
60853;SDS011;48554;50.766;2.900;2022-10-16T03:58:02;0.70;;;0.32;;
60853;SDS011;48554;50.766;2.900;2022-10-16T04:00:23;1.02;;;0.30;;
60853;SDS011;48554;50.766;2.900;2022-10-16T04:02:43;1.95;;;0.30;;
60853;SDS011;48554;50.766;2.900;2022-10-16T04:05:03;1.50;;;0.43;;
60853;SDS011;48554;50.766;2.900;2022-10-16T04:07:24;1.20;;;0.30;;
60853;SDS011;48554;50.766;2.900;2022-10-16T04:09:44;0.55;;;0.30;;
60853;SDS011;48554;50.766;2.900;2022-10-16T04:12:04;0.67;;;0.30;;
60853;SDS011;48554;50.766;2.900;2022-10-16T04:14:25;1.17;;;0.32;;
60853;SDS011;48554;50.766;2.900;2022-10-16T04:16:45;0.80;;;0.57;;
60853;SDS011;48554;50.766;2.900;2022-10-16T04:19:05;1.07;;;0.47;;
60853;SDS011;48554;50.766;2.900;2022-10-16T04:21:25;1.00;;;0.30;;
60853;SDS011;48554;50.766;2.900;2022-10-16T04:23:46;0.68;;;0.30;;
60853;SDS011;48554;50.766;2.900;2022-10-16T04:26:06;0.95;;;0.30;;
60853;SDS011;48554;50.766;2.900;2022-10-16T04:28:26;0.32;;;0.22;;
60853;SDS011;48554;50.766;2.900;2022-10-16T04:30:47;1.02;;;0.15;;
60853;SDS011;48554;50.766;2.900;2022-10-16T04:33:08;1.20;;;0.40;;
60853;SDS011;48554;50.766;2.900;2022-10-16T04:35:29;1.00;;;0.32;;
60853;SDS011;48554;50.766;2.900;2022-10-16T04:37:52;0.57;;;0.30;;
60853;SDS011;48554;50.766;2.900;2022-10-16T04:40:12;0.93;;;0.40;;
60853;SDS011;48554;50.766;2.900;2022-10-16T04:42:33;0.93;;;0.40;;
60853;SDS011;48554;50.766;2.900;2022-10-16T04:44:53;0.20;;;0.20;;
60853;SDS011;48554;50.766;2.900;2022-10-16T04:47:14;1.30;;;0.30;;
60853;SDS011;48554;50.766;2.900;2022-10-16T04:49:34;1.08;;;0.30;;
60853;SDS011;48554;50.766;2.900;2022-10-16T04:51:54;0.95;;;0.40;;
60853;SDS011;48554;50.766;2.900;2022-10-16T04:54:14;0.45;;;0.38;;
60853;SDS011;48554;50.766;2.900;2022-10-16T04:56:35;0.60;;;0.20;;
60853;SDS011;48554;50.766;2.900;2022-10-16T04:58:55;1.73;;;0.43;;
60853;SDS011;48554;50.766;2.900;2022-10-16T05:01:15;0.55;;;0.38;;
60853;SDS011;48554;50.766;2.900;2022-10-16T05:03:35;1.13;;;0.30;;
60853;SDS011;48554;50.766;2.900;2022-10-16T05:05:56;0.87;;;0.40;;
60853;SDS011;48554;50.766;2.900;2022-10-16T05:08:16;1.20;;;0.43;;
60853;SDS011;48554;50.766;2.900;2022-10-16T05:10:37;2.50;;;0.40;;
60853;SDS011;48554;50.766;2.900;2022-10-16T05:12:57;1.07;;;0.40;;
60853;SDS011;48554;50.766;2.900;2022-10-16T05:15:17;0.85;;;0.30;;
60853;SDS011;48554;50.766;2.900;2022-10-16T05:17:38;0.28;;;0.20;;
60853;SDS011;48554;50.766;2.900;2022-10-16T05:19:58;1.30;;;0.40;;
60853;SDS011;48554;50.766;2.900;2022-10-16T05:22:18;1.90;;;0.30;;
60853;SDS011;48554;50.766;2.900;2022-10-16T05:24:38;0.33;;;0.23;;
60853;SDS011;48554;50.766;2.900;2022-10-16T05:26:59;1.33;;;0.30;;
60853;SDS011;48554;50.766;2.900;2022-10-16T05:29:19;1.77;;;0.40;;
60853;SDS011;48554;50.766;2.900;2022-10-16T05:31:39;0.83;;;0.50;;
60853;SDS011;48554;50.766;2.900;2022-10-16T05:34:00;1.30;;;0.50;;
60853;SDS011;48554;50.766;2.900;2022-10-16T05:36:20;3.63;;;0.27;;
60853;SDS011;48554;50.766;2.900;2022-10-16T05:38:41;2.03;;;0.45;;
60853;SDS011;48554;50.766;2.900;2022-10-16T05:41:02;0.20;;;0.20;;
60853;SDS011;48554;50.766;2.900;2022-10-16T05:43:23;0.20;;;0.20;;
60853;SDS011;48554;50.766;2.900;2022-10-16T05:45:43;0.20;;;0.20;;
60853;SDS011;48554;50.766;2.900;2022-10-16T05:48:03;0.57;;;0.20;;
60853;SDS011;48554;50.766;2.900;2022-10-16T05:50:24;1.13;;;0.30;;
60853;SDS011;48554;50.766;2.900;2022-10-16T05:52:44;1.70;;;0.40;;
60853;SDS011;48554;50.766;2.900;2022-10-16T05:55:04;0.30;;;0.30;;
60853;SDS011;48554;50.766;2.900;2022-10-16T05:57:25;1.70;;;0.50;;
60853;SDS011;48554;50.766;2.900;2022-10-16T05:59:45;1.20;;;0.30;;
60853;SDS011;48554;50.766;2.900;2022-10-16T06:02:05;1.67;;;0.30;;
60853;SDS011;48554;50.766;2.900;2022-10-16T06:04:28;1.08;;;0.20;;
60853;SDS011;48554;50.766;2.900;2022-10-16T06:06:49;1.05;;;0.20;;
60853;SDS011;48554;50.766;2.900;2022-10-16T06:09:09;0.63;;;0.30;;
60853;SDS011;48554;50.766;2.900;2022-10-16T06:11:31;1.13;;;0.30;;
60853;SDS011;48554;50.766;2.900;2022-10-16T06:13:53;0.65;;;0.30;;
60853;SDS011;48554;50.766;2.900;2022-10-16T06:16:15;0.77;;;0.30;;
60853;SDS011;48554;50.766;2.900;2022-10-16T06:18:35;0.73;;;0.32;;
60853;SDS011;48554;50.766;2.900;2022-10-16T06:20:56;0.32;;;0.20;;
60853;SDS011;48554;50.766;2.900;2022-10-16T06:23:17;0.50;;;0.33;;
60853;SDS011;48554;50.766;2.900;2022-10-16T06:25:37;0.77;;;0.33;;
60853;SDS011;48554;50.766;2.900;2022-10-16T06:27:57;0.55;;;0.20;;
60853;SDS011;48554;50.766;2.900;2022-10-16T06:30:17;0.40;;;0.20;;
60853;SDS011;48554;50.766;2.900;2022-10-16T06:32:38;0.52;;;0.20;;
60853;SDS011;48554;50.766;2.900;2022-10-16T06:34:58;1.17;;;0.50;;
60853;SDS011;48554;50.766;2.900;2022-10-16T06:37:18;0.20;;;0.15;;
60853;SDS011;48554;50.766;2.900;2022-10-16T06:39:38;1.00;;;0.30;;
60853;SDS011;48554;50.766;2.900;2022-10-16T06:41:59;0.43;;;0.30;;
60853;SDS011;48554;50.766;2.900;2022-10-16T06:44:19;0.93;;;0.40;;
60853;SDS011;48554;50.766;2.900;2022-10-16T06:46:39;1.40;;;0.40;;
60853;SDS011;48554;50.766;2.900;2022-10-16T06:49:00;0.40;;;0.30;;
60853;SDS011;48554;50.766;2.900;2022-10-16T06:51:21;0.40;;;0.20;;
60853;SDS011;48554;50.766;2.900;2022-10-16T06:56:07;1.40;;;0.60;;
60853;SDS011;48554;50.766;2.900;2022-10-16T06:58:31;1.63;;;0.50;;
60853;SDS011;48554;50.766;2.900;2022-10-16T07:00:55;2.45;;;0.52;;
60853;SDS011;48554;50.766;2.900;2022-10-16T07:03:15;2.60;;;0.35;;
60853;SDS011;48554;50.766;2.900;2022-10-16T07:05:39;1.40;;;0.57;;
60853;SDS011;48554;50.766;2.900;2022-10-16T07:08:00;2.00;;;0.52;;
60853;SDS011;48554;50.766;2.900;2022-10-16T07:10:20;1.95;;;0.55;;
60853;SDS011;48554;50.766;2.900;2022-10-16T07:12:41;1.30;;;0.50;;
60853;SDS011;48554;50.766;2.900;2022-10-16T07:15:01;0.82;;;0.60;;
60853;SDS011;48554;50.766;2.900;2022-10-16T07:17:21;1.13;;;0.50;;
60853;SDS011;48554;50.766;2.900;2022-10-16T07:19:41;1.60;;;0.60;;
60853;SDS011;48554;50.766;2.900;2022-10-16T07:22:02;1.33;;;0.50;;
60853;SDS011;48554;50.766;2.900;2022-10-16T07:24:22;0.60;;;0.43;;
60853;SDS011;48554;50.766;2.900;2022-10-16T07:26:43;2.63;;;0.60;;
60853;SDS011;48554;50.766;2.900;2022-10-16T07:29:06;2.15;;;0.60;;
60853;SDS011;48554;50.766;2.900;2022-10-16T07:31:27;1.50;;;0.60;;
60853;SDS011;48554;50.766;2.900;2022-10-16T07:33:48;2.28;;;0.63;;
60853;SDS011;48554;50.766;2.900;2022-10-16T07:36:09;1.50;;;0.75;;
60853;SDS011;48554;50.766;2.900;2022-10-16T07:38:30;2.85;;;0.70;;
60853;SDS011;48554;50.766;2.900;2022-10-16T07:40:57;1.43;;;0.77;;
60853;SDS011;48554;50.766;2.900;2022-10-16T07:43:18;1.85;;;0.73;;
60853;SDS011;48554;50.766;2.900;2022-10-16T07:45:46;2.17;;;0.80;;
60853;SDS011;48554;50.766;2.900;2022-10-16T07:48:07;1.83;;;0.70;;
60853;SDS011;48554;50.766;2.900;2022-10-16T07:50:28;0.90;;;0.60;;
60853;SDS011;48554;50.766;2.900;2022-10-16T07:52:48;1.00;;;0.63;;
60853;SDS011;48554;50.766;2.900;2022-10-16T07:55:08;1.57;;;0.73;;
60853;SDS011;48554;50.766;2.900;2022-10-16T07:57:28;1.90;;;0.70;;
60853;SDS011;48554;50.766;2.900;2022-10-16T07:59:49;2.60;;;0.63;;
60853;SDS011;48554;50.766;2.900;2022-10-16T08:02:09;2.33;;;0.77;;
60853;SDS011;48554;50.766;2.900;2022-10-16T08:04:29;2.50;;;0.63;;
60853;SDS011;48554;50.766;2.900;2022-10-16T08:06:49;2.85;;;0.60;;
60853;SDS011;48554;50.766;2.900;2022-10-16T08:09:10;3.13;;;0.70;;
60853;SDS011;48554;50.766;2.900;2022-10-16T08:11:31;3.42;;;0.77;;
60853;SDS011;48554;50.766;2.900;2022-10-16T08:13:51;1.67;;;0.43;;
60853;SDS011;48554;50.766;2.900;2022-10-16T08:16:11;1.10;;;0.50;;
60853;SDS011;48554;50.766;2.900;2022-10-16T08:18:32;1.23;;;0.57;;
60853;SDS011;48554;50.766;2.900;2022-10-16T08:20:58;0.60;;;0.40;;
60853;SDS011;48554;50.766;2.900;2022-10-16T08:23:19;1.10;;;0.50;;
60853;SDS011;48554;50.766;2.900;2022-10-16T08:25:40;1.40;;;0.53;;
60853;SDS011;48554;50.766;2.900;2022-10-16T08:28:00;0.57;;;0.37;;
60853;SDS011;48554;50.766;2.900;2022-10-16T08:30:23;1.40;;;0.22;;
60853;SDS011;48554;50.766;2.900;2022-10-16T08:32:44;1.00;;;0.50;;
60853;SDS011;48554;50.766;2.900;2022-10-16T08:35:04;0.77;;;0.43;;
60853;SDS011;48554;50.766;2.900;2022-10-16T08:37:25;2.30;;;0.70;;
60853;SDS011;48554;50.766;2.900;2022-10-16T08:39:50;1.10;;;0.70;;
60853;SDS011;48554;50.766;2.900;2022-10-16T08:47:26;1.05;;;0.30;;
60853;SDS011;48554;50.766;2.900;2022-10-16T08:50:11;1.35;;;0.50;;
60853;SDS011;48554;50.766;2.900;2022-10-16T08:52:33;2.08;;;0.52;;
60853;SDS011;48554;50.766;2.900;2022-10-16T08:54:58;0.93;;;0.50;;
60853;SDS011;48554;50.766;2.900;2022-10-16T08:57:22;1.87;;;0.63;;
60853;SDS011;48554;50.766;2.900;2022-10-16T08:59:44;0.93;;;0.50;;
60853;SDS011;48554;50.766;2.900;2022-10-16T09:02:15;1.77;;;0.50;;
60853;SDS011;48554;50.766;2.900;2022-10-16T09:04:45;2.00;;;0.50;;
60853;SDS011;48554;50.766;2.900;2022-10-16T09:07:40;3.33;;;0.70;;
60853;SDS011;48554;50.766;2.900;2022-10-16T09:10:25;1.60;;;0.43;;
60853;SDS011;48554;50.766;2.900;2022-10-16T09:15:39;1.08;;;0.63;;
60853;SDS011;48554;50.766;2.900;2022-10-16T09:18:42;2.30;;;0.50;;
60853;SDS011;48554;50.766;2.900;2022-10-16T09:21:18;3.80;;;1.02;;
60853;SDS011;48554;50.766;2.900;2022-10-16T09:23:45;5.50;;;1.08;;
60853;SDS011;48554;50.766;2.900;2022-10-16T09:26:09;13.48;;;2.05;;
60853;SDS011;48554;50.766;2.900;2022-10-16T09:28:32;17.85;;;2.08;;
60853;SDS011;48554;50.766;2.900;2022-10-16T09:30:52;13.30;;;3.13;;
60853;SDS011;48554;50.766;2.900;2022-10-16T09:33:12;16.17;;;2.47;;
60853;SDS011;48554;50.766;2.900;2022-10-16T09:35:38;15.95;;;4.18;;
60853;SDS011;48554;50.766;2.900;2022-10-16T09:38:00;14.20;;;3.45;;
60853;SDS011;48554;50.766;2.900;2022-10-16T09:40:30;9.50;;;2.97;;
60853;SDS011;48554;50.766;2.900;2022-10-16T09:43:01;13.35;;;3.03;;
60853;SDS011;48554;50.766;2.900;2022-10-16T09:45:26;15.13;;;4.45;;
60853;SDS011;48554;50.766;2.900;2022-10-16T09:47:46;13.23;;;3.13;;
60853;SDS011;48554;50.766;2.900;2022-10-16T09:50:19;23.70;;;3.80;;
60853;SDS011;48554;50.766;2.900;2022-10-16T09:52:43;15.43;;;3.55;;
60853;SDS011;48554;50.766;2.900;2022-10-16T09:55:13;19.23;;;3.37;;
60853;SDS011;48554;50.766;2.900;2022-10-16T09:57:35;15.45;;;3.38;;
60853;SDS011;48554;50.766;2.900;2022-10-16T09:59:56;21.10;;;3.43;;
60853;SDS011;48554;50.766;2.900;2022-10-16T10:02:18;11.70;;;3.00;;
60853;SDS011;48554;50.766;2.900;2022-10-16T10:04:49;11.73;;;2.65;;
60853;SDS011;48554;50.766;2.900;2022-10-16T10:07:18;11.07;;;2.92;;
60853;SDS011;48554;50.766;2.900;2022-10-16T10:09:43;13.90;;;3.20;;
60853;SDS011;48554;50.766;2.900;2022-10-16T10:12:06;18.00;;;4.82;;
60853;SDS011;48554;50.766;2.900;2022-10-16T10:14:39;13.75;;;2.60;;
60853;SDS011;48554;50.766;2.900;2022-10-16T10:17:11;14.50;;;3.00;;
60853;SDS011;48554;50.766;2.900;2022-10-16T10:19:53;12.57;;;2.55;;
60853;SDS011;48554;50.766;2.900;2022-10-16T10:22:22;14.45;;;3.20;;
60853;SDS011;48554;50.766;2.900;2022-10-16T10:24:55;12.35;;;2.40;;
60853;SDS011;48554;50.766;2.900;2022-10-16T10:30:18;20.20;;;5.55;;
60853;SDS011;48554;50.766;2.900;2022-10-16T10:33:07;12.25;;;2.90;;
60853;SDS011;48554;50.766;2.900;2022-10-16T10:36:19;16.05;;;2.78;;
60853;SDS011;48554;50.766;2.900;2022-10-16T10:46:02;15.25;;;3.30;;
60853;SDS011;48554;50.766;2.900;2022-10-16T10:48:28;8.20;;;2.70;;
60853;SDS011;48554;50.766;2.900;2022-10-16T10:51:01;9.85;;;2.78;;
60853;SDS011;48554;50.766;2.900;2022-10-16T11:01:19;15.73;;;2.58;;
60853;SDS011;48554;50.766;2.900;2022-10-16T11:08:50;8.10;;;2.10;;
60853;SDS011;48554;50.766;2.900;2022-10-16T11:11:38;11.77;;;3.17;;
60853;SDS011;48554;50.766;2.900;2022-10-16T11:16:39;10.50;;;2.28;;
60853;SDS011;48554;50.766;2.900;2022-10-16T11:19:12;10.07;;;2.42;;
60853;SDS011;48554;50.766;2.900;2022-10-16T11:22:01;10.47;;;2.10;;
60853;SDS011;48554;50.766;2.900;2022-10-16T11:24:23;11.98;;;3.00;;
60853;SDS011;48554;50.766;2.900;2022-10-16T11:27:00;8.52;;;2.42;;
60853;SDS011;48554;50.766;2.900;2022-10-16T11:29:28;7.63;;;2.00;;
60853;SDS011;48554;50.766;2.900;2022-10-16T11:31:57;7.88;;;1.88;;
60853;SDS011;48554;50.766;2.900;2022-10-16T11:37:03;9.73;;;2.22;;
60853;SDS011;48554;50.766;2.900;2022-10-16T11:39:30;9.88;;;2.10;;
60853;SDS011;48554;50.766;2.900;2022-10-16T11:49:53;5.72;;;1.65;;
60853;SDS011;48554;50.766;2.900;2022-10-16T11:52:36;6.53;;;2.03;;
60853;SDS011;48554;50.766;2.900;2022-10-16T11:55:23;3.83;;;1.42;;
60853;SDS011;48554;50.766;2.900;2022-10-16T11:57:59;9.85;;;2.00;;
60853;SDS011;48554;50.766;2.900;2022-10-16T12:00:26;6.65;;;1.90;;
60853;SDS011;48554;50.766;2.900;2022-10-16T12:02:54;8.48;;;1.80;;
60853;SDS011;48554;50.766;2.900;2022-10-16T12:08:14;4.32;;;1.48;;
60853;SDS011;48554;50.766;2.900;2022-10-16T12:10:36;5.30;;;1.45;;
60853;SDS011;48554;50.766;2.900;2022-10-16T12:12:58;6.75;;;1.65;;
60853;SDS011;48554;50.766;2.900;2022-10-16T12:15:23;8.07;;;2.93;;
60853;SDS011;48554;50.766;2.900;2022-10-16T12:17:45;5.03;;;1.25;;
60853;SDS011;48554;50.766;2.900;2022-10-16T12:22:32;4.15;;;1.50;;
60853;SDS011;48554;50.766;2.900;2022-10-16T12:24:53;7.53;;;1.70;;
60853;SDS011;48554;50.766;2.900;2022-10-16T12:27:25;4.07;;;1.47;;
60853;SDS011;48554;50.766;2.900;2022-10-16T12:29:49;4.45;;;1.48;;
60853;SDS011;48554;50.766;2.900;2022-10-16T12:32:35;6.00;;;1.50;;
60853;SDS011;48554;50.766;2.900;2022-10-16T12:34:58;3.70;;;1.10;;
60853;SDS011;48554;50.766;2.900;2022-10-16T12:37:24;4.65;;;1.25;;
60853;SDS011;48554;50.766;2.900;2022-10-16T12:39:48;6.53;;;1.73;;
60853;SDS011;48554;50.766;2.900;2022-10-16T12:42:20;4.72;;;1.77;;
60853;SDS011;48554;50.766;2.900;2022-10-16T12:44:46;4.35;;;1.45;;
60853;SDS011;48554;50.766;2.900;2022-10-16T12:47:18;4.70;;;1.43;;
60853;SDS011;48554;50.766;2.900;2022-10-16T12:49:47;5.43;;;1.48;;
60853;SDS011;48554;50.766;2.900;2022-10-16T12:54:46;4.68;;;1.10;;
60853;SDS011;48554;50.766;2.900;2022-10-16T12:59:44;5.45;;;1.48;;
60853;SDS011;48554;50.766;2.900;2022-10-16T13:12:52;5.50;;;1.10;;
60853;SDS011;48554;50.766;2.900;2022-10-16T13:29:02;4.18;;;1.17;;
60853;SDS011;48554;50.766;2.900;2022-10-16T13:31:24;4.78;;;0.95;;
60853;SDS011;48554;50.766;2.900;2022-10-16T13:33:46;5.13;;;1.27;;
60853;SDS011;48554;50.766;2.900;2022-10-16T13:36:26;5.00;;;1.00;;
60853;SDS011;48554;50.766;2.900;2022-10-16T13:38:47;3.92;;;1.10;;
60853;SDS011;48554;50.766;2.900;2022-10-16T13:41:16;4.47;;;1.20;;
60853;SDS011;48554;50.766;2.900;2022-10-16T13:43:38;2.72;;;0.90;;
60853;SDS011;48554;50.766;2.900;2022-10-16T13:46:05;3.75;;;1.10;;
60853;SDS011;48554;50.766;2.900;2022-10-16T13:48:27;4.15;;;0.82;;
60853;SDS011;48554;50.766;2.900;2022-10-16T13:50:57;2.97;;;0.80;;
60853;SDS011;48554;50.766;2.900;2022-10-16T13:53:19;3.92;;;1.10;;
60853;SDS011;48554;50.766;2.900;2022-10-16T13:55:39;5.53;;;1.00;;
60853;SDS011;48554;50.766;2.900;2022-10-16T13:58:12;4.27;;;1.20;;
60853;SDS011;48554;50.766;2.900;2022-10-16T14:00:34;4.43;;;0.80;;
60853;SDS011;48554;50.766;2.900;2022-10-16T14:02:59;3.70;;;1.33;;
60853;SDS011;48554;50.766;2.900;2022-10-16T14:05:25;3.60;;;0.70;;
60853;SDS011;48554;50.766;2.900;2022-10-16T14:07:48;3.20;;;0.73;;
60853;SDS011;48554;50.766;2.900;2022-10-16T14:10:30;3.63;;;0.88;;
60853;SDS011;48554;50.766;2.900;2022-10-16T14:13:02;5.18;;;0.93;;
60853;SDS011;48554;50.766;2.900;2022-10-16T14:15:25;1.38;;;0.75;;
60853;SDS011;48554;50.766;2.900;2022-10-16T14:17:45;2.17;;;0.60;;
60853;SDS011;48554;50.766;2.900;2022-10-16T14:20:13;1.73;;;0.68;;
60853;SDS011;48554;50.766;2.900;2022-10-16T14:22:36;2.88;;;0.60;;
60853;SDS011;48554;50.766;2.900;2022-10-16T14:24:58;2.17;;;0.90;;
60853;SDS011;48554;50.766;2.900;2022-10-16T14:27:27;2.10;;;0.80;;
60853;SDS011;48554;50.766;2.900;2022-10-16T14:30:05;2.72;;;0.70;;
60853;SDS011;48554;50.766;2.900;2022-10-16T14:32:28;1.67;;;0.60;;
60853;SDS011;48554;50.766;2.900;2022-10-16T14:34:52;2.33;;;0.93;;
60853;SDS011;48554;50.766;2.900;2022-10-16T14:37:22;1.85;;;0.57;;
60853;SDS011;48554;50.766;2.900;2022-10-16T14:39:48;1.63;;;0.43;;
60853;SDS011;48554;50.766;2.900;2022-10-16T14:42:14;1.67;;;0.68;;
60853;SDS011;48554;50.766;2.900;2022-10-16T14:44:38;2.13;;;0.70;;
60853;SDS011;48554;50.766;2.900;2022-10-16T14:47:09;1.58;;;0.60;;
60853;SDS011;48554;50.766;2.900;2022-10-16T14:49:33;2.90;;;0.90;;
60853;SDS011;48554;50.766;2.900;2022-10-16T14:51:54;3.37;;;0.50;;
60853;SDS011;48554;50.766;2.900;2022-10-16T14:54:16;3.53;;;0.70;;
60853;SDS011;48554;50.766;2.900;2022-10-16T14:59:25;2.47;;;0.90;;
60853;SDS011;48554;50.766;2.900;2022-10-16T15:02:16;1.38;;;0.60;;
60853;SDS011;48554;50.766;2.900;2022-10-16T15:04:38;1.95;;;0.50;;
60853;SDS011;48554;50.766;2.900;2022-10-16T15:06:58;2.00;;;0.57;;
60853;SDS011;48554;50.766;2.900;2022-10-16T15:09:18;1.70;;;0.67;;
60853;SDS011;48554;50.766;2.900;2022-10-16T15:11:38;1.60;;;0.70;;
60853;SDS011;48554;50.766;2.900;2022-10-16T15:13:59;3.50;;;0.87;;
60853;SDS011;48554;50.766;2.900;2022-10-16T15:16:20;2.17;;;0.80;;
60853;SDS011;48554;50.766;2.900;2022-10-16T15:18:40;1.50;;;0.70;;
60853;SDS011;48554;50.766;2.900;2022-10-16T15:21:00;1.60;;;0.73;;
60853;SDS011;48554;50.766;2.900;2022-10-16T15:23:21;2.63;;;0.60;;
60853;SDS011;48554;50.766;2.900;2022-10-16T15:28:10;0.60;;;0.38;;
60853;SDS011;48554;50.766;2.900;2022-10-16T15:30:31;3.25;;;0.73;;
60853;SDS011;48554;50.766;2.900;2022-10-16T15:32:51;1.30;;;0.50;;
60853;SDS011;48554;50.766;2.900;2022-10-16T15:35:12;2.83;;;0.60;;
60853;SDS011;48554;50.766;2.900;2022-10-16T15:37:32;2.50;;;0.52;;
60853;SDS011;48554;50.766;2.900;2022-10-16T15:39:52;0.93;;;0.50;;
60853;SDS011;48554;50.766;2.900;2022-10-16T15:42:12;4.03;;;0.70;;
60853;SDS011;48554;50.766;2.900;2022-10-16T15:44:33;1.70;;;0.47;;
60853;SDS011;48554;50.766;2.900;2022-10-16T15:46:54;2.20;;;0.50;;
60853;SDS011;48554;50.766;2.900;2022-10-16T15:49:15;2.13;;;0.47;;
60853;SDS011;48554;50.766;2.900;2022-10-16T15:51:37;2.53;;;0.70;;
60853;SDS011;48554;50.766;2.900;2022-10-16T15:53:59;1.65;;;0.60;;
60853;SDS011;48554;50.766;2.900;2022-10-16T15:56:19;0.97;;;0.40;;
60853;SDS011;48554;50.766;2.900;2022-10-16T15:58:40;1.67;;;0.60;;
60853;SDS011;48554;50.766;2.900;2022-10-16T16:01:01;1.37;;;0.50;;
60853;SDS011;48554;50.766;2.900;2022-10-16T16:03:23;2.17;;;0.70;;
60853;SDS011;48554;50.766;2.900;2022-10-16T16:05:43;2.00;;;0.43;;